createdAt,value
2018-06-09T00:00:34.560Z,30.40
2018-06-09T00:03:03.134Z,30.53
2018-06-09T00:05:31.686Z,33.37
2018-06-09T00:08:00.284Z,30.63
2018-06-09T00:10:28.886Z,31.03
2018-06-09T00:12:57.434Z,27.33
2018-06-09T00:15:26.288Z,37.43
2018-06-09T00:17:55.130Z,37.43
2018-06-09T00:20:24.223Z,38.03
2018-06-09T00:22:53.580Z,36.23
2018-06-09T00:25:22.336Z,36.63
2018-06-09T00:27:50.911Z,35.00
2018-06-09T00:30:19.716Z,36.07
2018-06-09T00:32:48.324Z,37.50
2018-06-09T00:35:16.850Z,42.43
2018-06-09T00:37:45.342Z,33.63
2018-06-09T00:40:14.131Z,40.57
2018-06-09T00:42:42.794Z,41.57
2018-06-09T00:45:11.534Z,36.40
2018-06-09T00:47:40.237Z,36.53
2018-06-09T00:50:08.745Z,36.07
2018-06-09T00:52:37.533Z,41.00
2018-06-09T00:55:06.431Z,38.00
2018-06-09T00:57:34.944Z,39.00
2018-06-09T01:00:03.164Z,31.23
2018-06-09T01:02:32.460Z,45.33
2018-06-09T01:05:01.210Z,41.97
2018-06-09T01:07:29.760Z,40.00
2018-06-09T01:09:58.301Z,38.90
2018-06-09T01:12:26.891Z,43.60
2018-06-09T01:14:55.707Z,54.47
2018-06-09T01:17:24.202Z,48.07
2018-06-09T01:19:52.807Z,45.00
2018-06-09T01:22:21.015Z,45.33
2018-06-09T01:24:49.837Z,46.37
2018-06-09T01:27:18.827Z,51.47
2018-06-09T01:29:47.409Z,38.77
2018-06-09T01:32:16.005Z,39.93
2018-06-09T01:34:44.576Z,50.43
2018-06-09T01:37:14.076Z,38.37
2018-06-09T01:39:42.834Z,44.10
2018-06-09T01:42:11.341Z,45.17
2018-06-09T01:44:39.851Z,52.27
2018-06-09T01:47:08.402Z,61.13
2018-06-09T01:49:37.019Z,48.97
2018-06-09T01:52:05.967Z,47.93
2018-06-09T01:54:34.487Z,47.97
2018-06-09T01:57:03.947Z,50.57
2018-06-09T01:59:32.674Z,63.77
2018-06-09T02:02:01.212Z,60.20
2018-06-09T02:04:29.753Z,60.63
2018-06-09T02:06:58.280Z,46.80
2018-06-09T02:09:27.062Z,53.83
2018-06-09T02:11:55.803Z,49.70
2018-06-09T02:14:24.487Z,56.30
2018-06-09T02:16:53.017Z,60.37
2018-06-09T02:19:22.147Z,46.30
2018-06-09T02:21:50.840Z,65.77
2018-06-09T02:24:19.409Z,54.00
2018-06-09T02:26:47.959Z,61.30
2018-06-09T02:29:16.474Z,69.97
2018-06-09T02:31:45.043Z,56.45
2018-06-09T02:34:13.832Z,47.53
2018-06-09T02:36:42.340Z,48.83
2018-06-09T02:39:10.900Z,45.07
2018-06-09T02:41:39.096Z,42.07
2018-06-09T02:44:07.692Z,50.97
2018-06-09T02:46:36.386Z,60.57
2018-06-09T02:49:05.222Z,47.47
2018-06-09T02:51:33.748Z,56.03
2018-06-09T02:54:02.434Z,47.43
2018-06-09T02:56:31.444Z,61.07
2018-06-09T02:58:59.929Z,47.17
2018-06-09T03:01:28.460Z,52.87
2018-06-09T03:03:57.480Z,48.07
2018-06-09T03:06:26.118Z,41.80
2018-06-09T03:08:54.733Z,53.27
2018-06-09T03:11:23.424Z,41.93
2018-06-09T03:13:51.896Z,46.63
2018-06-09T03:16:20.478Z,43.37
2018-06-09T03:18:49.063Z,41.00
2018-06-09T03:21:17.654Z,45.13
2018-06-09T03:23:46.170Z,47.73
2018-06-09T03:26:14.738Z,39.63
2018-06-09T03:28:43.412Z,42.17
2018-06-09T03:31:11.960Z,46.77
2018-06-09T03:33:40.526Z,50.33
2018-06-09T03:36:09.134Z,34.83
2018-06-09T03:38:37.801Z,48.50
2018-06-09T03:41:06.328Z,48.97
2018-06-09T03:43:34.917Z,37.97
2018-06-09T03:46:03.408Z,36.57
2018-06-09T03:48:31.996Z,51.83
2018-06-09T03:51:00.508Z,42.23
2018-06-09T03:53:29.072Z,38.80
2018-06-09T03:55:57.769Z,40.23
2018-06-09T03:58:27.113Z,36.57
2018-06-09T04:00:55.620Z,43.63
2018-06-09T04:03:24.471Z,39.70
2018-06-09T04:05:52.953Z,41.20
2018-06-09T04:08:21.745Z,45.20
2018-06-09T04:10:50.176Z,37.87
2018-06-09T04:13:18.775Z,37.07
2018-06-09T04:15:47.275Z,41.80
2018-06-09T04:18:15.797Z,41.93
2018-06-09T04:20:44.345Z,38.77
2018-06-09T04:23:14.029Z,32.80
2018-06-09T04:25:43.081Z,39.63
2018-06-09T04:28:11.585Z,42.43
2018-06-09T04:30:40.977Z,34.17
2018-06-09T04:33:09.796Z,39.27
2018-06-09T04:35:38.284Z,34.53
2018-06-09T04:38:06.972Z,34.93
2018-06-09T04:40:35.457Z,35.37
2018-06-09T04:43:03.967Z,38.63
2018-06-09T04:45:32.417Z,35.97
2018-06-09T04:48:01.231Z,33.13
2018-06-09T04:50:29.991Z,38.17
2018-06-09T04:52:58.682Z,34.90
2018-06-09T04:55:27.472Z,37.20
2018-06-09T04:57:56.055Z,32.70
2018-06-09T05:00:24.583Z,33.57
2018-06-09T05:02:53.173Z,33.70
2018-06-09T05:05:22.021Z,30.30
2018-06-09T05:07:50.771Z,29.60
2018-06-09T05:10:19.505Z,30.67
2018-06-09T05:12:48.075Z,27.00
2018-06-09T05:15:16.591Z,27.70
2018-06-09T05:17:45.104Z,25.87
2018-06-09T05:20:13.685Z,26.97
2018-06-09T05:22:42.177Z,28.60
2018-06-09T05:25:10.714Z,25.70
2018-06-09T05:27:39.186Z,32.20
2018-06-09T05:30:07.711Z,27.27
2018-06-09T05:32:36.405Z,30.07
2018-06-09T05:35:05.385Z,31.47
2018-06-09T05:37:34.079Z,29.57
2018-06-09T05:40:02.563Z,29.90
2018-06-09T05:42:31.371Z,29.23
2018-06-09T05:44:59.875Z,28.47
2018-06-09T05:47:28.543Z,31.03
2018-06-09T05:49:57.061Z,28.43
2018-06-09T05:52:25.915Z,36.07
2018-06-09T05:54:54.610Z,40.10
2018-06-09T05:57:23.118Z,37.27
2018-06-09T05:59:51.787Z,30.60
2018-06-09T06:02:20.775Z,32.87
2018-06-09T06:04:49.307Z,29.37
2018-06-09T06:07:17.837Z,36.27
2018-06-09T06:09:46.345Z,28.87
2018-06-09T06:12:14.867Z,37.43
2018-06-09T06:14:43.411Z,35.83
2018-06-09T06:17:12.111Z,33.87
2018-06-09T06:19:40.614Z,35.37
2018-06-09T06:22:09.180Z,32.43
2018-06-09T06:24:37.772Z,33.43
2018-06-09T06:27:06.006Z,26.30
2018-06-09T06:29:35.249Z,31.13
2018-06-09T06:32:04.502Z,30.57
2018-06-09T06:34:33.032Z,32.30
2018-06-09T06:37:01.580Z,28.63
2018-06-09T06:39:30.794Z,30.80
2018-06-09T06:41:59.352Z,35.37
2018-06-09T06:44:27.914Z,28.63
2018-06-09T06:46:56.623Z,26.17
2018-06-09T06:49:25.309Z,27.80
2018-06-09T06:51:53.984Z,29.80
2018-06-09T06:54:22.582Z,30.37
2018-06-09T06:56:51.254Z,29.03
2018-06-09T06:59:19.756Z,31.67
2018-06-09T07:01:48.589Z,32.87
2018-06-09T07:04:17.479Z,26.50
2018-06-09T07:06:46.032Z,34.93
2018-06-09T07:09:14.705Z,25.73
2018-06-09T07:11:43.343Z,33.93
2018-06-09T07:14:12.499Z,28.20
2018-06-09T07:16:41.013Z,27.73
2018-06-09T07:19:10.398Z,28.47
2018-06-09T07:21:39.104Z,25.43
2018-06-09T07:24:07.845Z,28.90
2018-06-09T07:26:36.465Z,27.60
2018-06-09T07:29:05.132Z,23.13
2018-06-09T07:31:33.938Z,25.20
2018-06-09T07:34:02.690Z,26.83
2018-06-09T07:36:31.181Z,23.40
2018-06-09T07:39:00.151Z,23.00
2018-06-09T07:41:28.851Z,22.80
2018-06-09T07:43:58.423Z,23.47
2018-06-09T07:46:26.969Z,22.43
2018-06-09T07:48:55.539Z,26.77
2018-06-09T07:51:24.162Z,26.27
2018-06-09T07:53:52.688Z,31.90
2018-06-09T07:56:21.217Z,26.00
2018-06-09T07:58:49.770Z,29.43
2018-06-09T08:01:18.319Z,28.80
2018-06-09T08:03:46.783Z,26.53
2018-06-09T08:06:15.743Z,27.67
2018-06-09T08:08:44.455Z,29.10
2018-06-09T08:11:13.021Z,28.47
2018-06-09T08:13:41.533Z,29.47
2018-06-09T08:16:10.643Z,23.10
2018-06-09T08:18:39.206Z,26.53
2018-06-09T08:21:07.936Z,18.97
2018-06-09T08:23:36.521Z,25.20
2018-06-09T08:26:05.050Z,22.97
2018-06-09T08:28:33.845Z,28.23
2018-06-09T08:31:02.020Z,29.40
2018-06-09T08:33:30.725Z,25.40
2018-06-09T08:35:59.227Z,25.87
2018-06-09T08:38:27.801Z,31.53
2018-06-09T08:40:56.408Z,30.80
2018-06-09T08:43:24.989Z,26.73
2018-06-09T08:45:53.800Z,34.07
2018-06-09T08:48:22.346Z,28.23
2018-06-09T08:50:50.888Z,24.93
2018-06-09T08:53:20.414Z,34.17
2018-06-09T08:55:49.105Z,30.83
2018-06-09T08:58:18.384Z,26.90
2018-06-09T09:00:46.935Z,27.33
2018-06-09T09:03:15.597Z,29.83
2018-06-09T09:05:44.180Z,28.00
2018-06-09T09:08:13.010Z,22.70
2018-06-09T09:10:41.584Z,25.70
2018-06-09T09:13:10.337Z,27.67
2018-06-09T09:15:38.911Z,28.67
2018-06-09T09:18:07.387Z,28.00
2018-06-09T09:20:35.950Z,30.37
2018-06-09T09:23:04.731Z,29.67
2018-06-09T09:25:33.274Z,30.33
2018-06-09T09:28:02.300Z,28.57
2018-06-09T09:30:31.002Z,30.10
2018-06-09T09:32:59.739Z,24.73
2018-06-09T09:35:28.556Z,25.07
2018-06-09T09:37:57.079Z,27.70
2018-06-09T09:40:25.767Z,25.10
2018-06-09T09:42:54.101Z,26.70
2018-06-09T09:45:22.754Z,24.70
2018-06-09T09:47:51.345Z,24.97
2018-06-09T09:50:20.030Z,22.87
2018-06-09T09:52:48.625Z,24.67
2018-06-09T09:55:17.465Z,24.47
2018-06-09T09:57:55.807Z,22.67
2018-06-09T10:00:29.678Z,23.40
2018-06-09T10:02:58.246Z,23.57
2018-06-09T10:05:26.838Z,21.93
2018-06-09T10:07:55.379Z,24.67
2018-06-09T10:10:24.147Z,26.73
2018-06-09T10:12:52.675Z,22.97
2018-06-09T10:15:21.430Z,24.63
2018-06-09T10:17:50.160Z,23.87
2018-06-09T10:20:18.768Z,26.40
2018-06-09T10:22:47.464Z,26.83
2018-06-09T10:25:16.338Z,28.53
2018-06-09T10:27:44.935Z,26.07
2018-06-09T10:30:13.486Z,28.60
2018-06-09T10:32:42.097Z,23.63
2018-06-09T10:35:11.096Z,22.47
2018-06-09T10:37:39.782Z,27.23
2018-06-09T10:40:08.897Z,26.10
2018-06-09T10:42:37.416Z,28.60
2018-06-09T10:45:06.262Z,28.37
2018-06-09T10:47:35.908Z,23.10
2018-06-09T10:50:05.122Z,23.53
2018-06-09T10:52:34.328Z,24.43
2018-06-09T10:55:03.064Z,24.97
2018-06-09T10:57:32.085Z,23.93
2018-06-09T11:00:00.746Z,23.40
2018-06-09T11:02:29.706Z,24.60
2018-06-09T11:04:58.284Z,24.27
2018-06-09T11:07:27.001Z,21.23
2018-06-09T11:09:56.034Z,25.80
2018-06-09T11:12:24.884Z,25.57
2018-06-09T11:14:53.546Z,24.70
2018-06-09T11:17:22.088Z,24.60
2018-06-09T11:19:50.630Z,24.20
2018-06-09T11:22:19.228Z,29.47
2018-06-09T11:24:47.959Z,24.47
2018-06-09T11:27:16.409Z,23.43
2018-06-09T11:29:45.048Z,28.87
2018-06-09T11:32:13.598Z,25.30
2018-06-09T11:34:42.270Z,26.30
2018-06-09T11:37:10.974Z,22.67
2018-06-09T11:39:39.551Z,25.17
2018-06-09T11:42:08.157Z,23.17
2018-06-09T11:44:36.851Z,22.10
2018-06-09T11:47:05.494Z,25.00
2018-06-09T11:49:33.964Z,26.60
2018-06-09T11:52:02.573Z,23.13
2018-06-09T11:54:31.338Z,26.60
2018-06-09T11:56:59.940Z,24.73
2018-06-09T11:59:28.443Z,21.10
2018-06-09T12:01:57.088Z,25.60
2018-06-09T12:04:25.691Z,21.57
2018-06-09T12:06:54.662Z,22.80
2018-06-09T12:09:23.229Z,23.13
2018-06-09T12:11:52.538Z,22.90
2018-06-09T12:14:21.153Z,27.63
2018-06-09T12:16:49.655Z,22.00
2018-06-09T12:19:18.734Z,22.97
2018-06-09T12:21:47.530Z,24.03
2018-06-09T12:24:16.175Z,23.73
2018-06-09T12:26:44.693Z,20.20
2018-06-09T12:29:13.447Z,25.37
2018-06-09T12:31:41.934Z,22.53
2018-06-09T12:34:10.616Z,23.23
2018-06-09T12:36:39.276Z,22.87
2018-06-09T12:39:07.724Z,20.63
2018-06-09T12:41:36.385Z,22.90
2018-06-09T12:44:04.940Z,25.17
2018-06-09T12:46:33.520Z,23.00
2018-06-09T12:49:01.996Z,20.70
2018-06-09T12:51:30.942Z,23.03
2018-06-09T12:53:59.435Z,23.67
2018-06-09T12:56:27.674Z,23.83
2018-06-09T12:58:56.606Z,25.57
2018-06-09T13:01:25.167Z,25.63
2018-06-09T13:03:53.640Z,25.90
2018-06-09T13:06:22.742Z,26.17
2018-06-09T13:08:51.200Z,22.97
2018-06-09T13:11:19.967Z,20.47
2018-06-09T13:13:48.894Z,22.17
2018-06-09T13:16:17.442Z,20.07
2018-06-09T13:18:46.274Z,21.67
2018-06-09T13:21:14.470Z,23.27
2018-06-09T13:23:43.015Z,21.27
2018-06-09T13:26:11.519Z,23.23
2018-06-09T13:28:40.048Z,23.37
2018-06-09T13:31:08.929Z,23.77
2018-06-09T13:33:37.448Z,19.60
2018-06-09T13:36:06.067Z,22.80
2018-06-09T13:38:34.569Z,23.90
2018-06-09T13:41:03.233Z,28.83
2018-06-09T13:43:31.708Z,30.53
2018-06-09T13:46:00.389Z,31.53
2018-06-09T13:48:28.987Z,24.87
2018-06-09T13:50:57.537Z,23.03
2018-06-09T13:53:26.090Z,22.37
2018-06-09T13:55:54.747Z,18.97
2018-06-09T13:58:23.446Z,22.17
2018-06-09T14:00:52.793Z,21.07
2018-06-09T14:03:21.469Z,23.27
2018-06-09T14:05:50.386Z,25.00
2018-06-09T14:08:18.922Z,21.77
2018-06-09T14:10:47.656Z,20.40
2018-06-09T14:13:16.158Z,19.97
2018-06-09T14:15:45.005Z,23.47
2018-06-09T14:18:13.612Z,19.40
2018-06-09T14:20:42.308Z,20.30
2018-06-09T14:23:10.943Z,18.47
2018-06-09T14:25:39.534Z,21.97
2018-06-09T14:28:07.963Z,23.50
2018-06-09T14:30:36.613Z,21.93
2018-06-09T14:33:05.437Z,21.47
2018-06-09T14:35:34.070Z,21.07
2018-06-09T14:38:02.670Z,25.37
2018-06-09T14:40:31.189Z,21.37
2018-06-09T14:43:00.099Z,26.63
2018-06-09T14:45:28.537Z,23.23
2018-06-09T14:47:57.229Z,24.70
2018-06-09T14:50:25.857Z,21.90
2018-06-09T14:52:54.406Z,22.90
2018-06-09T14:55:22.918Z,26.20
2018-06-09T14:57:52.100Z,20.63
2018-06-09T15:00:20.614Z,21.90
2018-06-09T15:02:49.328Z,18.77
2018-06-09T15:05:17.846Z,20.50
2018-06-09T15:07:46.368Z,23.83
2018-06-09T15:10:15.365Z,21.20
2018-06-09T15:12:43.865Z,16.27
2018-06-09T15:15:12.420Z,17.60
2018-06-09T15:17:40.972Z,17.03
2018-06-09T15:20:09.742Z,16.53
2018-06-09T15:22:38.799Z,21.23
2018-06-09T15:25:07.658Z,25.63
2018-06-09T15:27:36.160Z,19.87
2018-06-09T15:30:04.721Z,21.70
2018-06-09T15:32:33.203Z,18.87
2018-06-09T15:35:01.730Z,22.97
2018-06-09T15:37:30.448Z,19.40
2018-06-09T15:39:58.969Z,22.37
2018-06-09T15:42:27.554Z,20.90
2018-06-09T15:44:56.343Z,19.17
2018-06-09T16:46:42.263Z,24.33
2018-06-09T16:49:11.048Z,24.03
2018-06-09T16:51:42.004Z,24.70
2018-06-09T16:54:11.121Z,28.23
2018-06-09T16:56:41.698Z,22.47
2018-06-09T16:59:10.235Z,22.40
2018-06-09T17:01:38.767Z,22.03
2018-06-09T17:04:07.534Z,22.17
2018-06-09T17:06:36.075Z,23.30
2018-06-09T17:09:06.863Z,25.43
2018-06-09T17:11:35.368Z,24.73
2018-06-09T17:14:04.600Z,23.80
2018-06-09T17:16:33.136Z,22.07
2018-06-09T17:19:02.465Z,24.10
2018-06-09T17:21:31.267Z,23.47
2018-06-09T17:23:59.836Z,19.23
2018-06-09T17:26:28.827Z,23.43
2018-06-09T17:28:57.488Z,22.17
2018-06-09T17:31:26.005Z,18.83
2018-06-09T17:33:55.158Z,23.93
2018-06-09T17:36:23.720Z,19.77
2018-06-09T17:38:52.255Z,20.73
2018-06-09T17:41:20.810Z,18.20
2018-06-09T17:43:49.374Z,20.53
2018-06-09T17:46:17.901Z,23.40
2018-06-09T17:48:47.127Z,23.60
2018-06-09T17:51:15.884Z,20.10
2018-06-09T17:53:44.523Z,24.17
2018-06-09T17:56:13.314Z,23.83
2018-06-09T17:58:41.886Z,19.27
2018-06-09T18:01:10.502Z,25.67
2018-06-09T18:03:39.068Z,23.87
2018-06-09T18:06:07.637Z,22.43
2018-06-09T18:08:36.686Z,21.90
2018-06-09T18:11:05.212Z,23.10
2018-06-09T18:13:33.804Z,20.40
2018-06-09T18:16:02.978Z,22.30
2018-06-09T18:18:31.495Z,27.83
2018-06-09T18:20:59.984Z,18.47
2018-06-09T18:23:28.547Z,21.67
2018-06-09T18:25:57.076Z,15.43
2018-06-09T18:28:25.611Z,21.93
2018-06-09T18:30:54.289Z,20.00
2018-06-09T18:33:22.842Z,21.80
2018-06-09T18:35:51.309Z,19.40
2018-06-09T18:38:19.574Z,19.70
2018-06-09T18:40:48.090Z,20.00
2018-06-09T18:43:16.836Z,20.30
2018-06-09T18:45:45.505Z,18.37
2018-06-09T18:48:14.056Z,17.23
2018-06-09T18:50:42.674Z,20.87
2018-06-09T18:53:11.223Z,23.93
2018-06-09T18:55:39.887Z,20.20
2018-06-09T18:58:08.573Z,19.67
2018-06-09T19:00:37.645Z,18.63
2018-06-09T19:03:06.338Z,31.40
2018-06-09T19:05:35.457Z,19.80
2018-06-09T19:08:04.099Z,18.00
2018-06-09T19:10:32.719Z,19.40
2018-06-09T19:13:01.261Z,22.60
2018-06-09T19:15:30.294Z,17.03
2018-06-09T19:17:58.995Z,22.50
2018-06-09T19:20:27.829Z,22.00
2018-06-09T19:22:56.412Z,23.77
2018-06-09T19:25:24.933Z,21.13
2018-06-09T19:27:53.482Z,20.70
2018-06-09T19:30:22.062Z,19.37
2018-06-09T19:32:50.682Z,22.67
2018-06-09T19:35:19.198Z,25.70
2018-06-09T19:37:47.735Z,21.57
2018-06-09T19:40:16.242Z,22.87
2018-06-09T19:42:44.895Z,21.30
2018-06-09T19:45:13.581Z,26.13
2018-06-09T19:47:42.438Z,18.27
2018-06-09T19:50:11.006Z,23.97
2018-06-09T19:52:39.584Z,20.97
2018-06-09T19:55:08.208Z,24.50
2018-06-09T19:57:36.736Z,21.30
2018-06-09T20:00:05.340Z,26.07
2018-06-09T20:02:33.641Z,22.70
2018-06-09T20:05:02.222Z,18.73
2018-06-09T20:07:30.766Z,22.27
2018-06-09T20:09:58.935Z,20.90
2018-06-09T20:12:27.569Z,22.73
2018-06-09T20:14:56.514Z,21.13
2018-06-09T20:17:25.270Z,20.10
2018-06-09T20:19:53.827Z,23.30
2018-06-09T20:22:22.429Z,23.63
2018-06-09T20:24:50.987Z,21.27
2018-06-09T20:27:19.718Z,20.80
2018-06-09T20:29:48.225Z,22.97
2018-06-09T20:32:16.950Z,25.50
2018-06-09T20:34:45.516Z,19.20
2018-06-09T20:37:14.260Z,21.80
2018-06-09T20:39:42.917Z,20.70
2018-06-09T20:42:11.560Z,23.33
2018-06-09T20:44:40.066Z,18.97
2018-06-09T20:47:08.579Z,27.37
2018-06-09T20:49:37.218Z,22.30
2018-06-09T20:52:05.761Z,19.87
2018-06-09T20:54:34.410Z,24.67
2018-06-09T20:57:02.927Z,20.57
2018-06-09T20:59:31.454Z,22.30
2018-06-09T21:02:00.069Z,28.93
2018-06-09T21:04:28.634Z,23.67
2018-06-09T21:06:57.159Z,21.83
2018-06-09T21:09:25.779Z,20.03
2018-06-09T21:11:54.454Z,22.70
2018-06-09T21:14:22.996Z,20.13
2018-06-09T21:16:51.501Z,25.67
2018-06-09T21:19:20.047Z,23.03
2018-06-09T21:21:48.898Z,22.10
2018-06-09T21:24:17.565Z,23.77
2018-06-09T21:26:51.370Z,20.30
2018-06-09T21:31:31.401Z,21.27
2018-06-09T21:35:18.480Z,22.47
2018-06-09T21:37:48.196Z,22.43
2018-06-09T21:40:47.423Z,25.37
2018-06-09T21:43:21.802Z,26.07
2018-06-09T21:45:51.640Z,21.20
2018-06-09T21:48:20.794Z,21.23
2018-06-09T21:50:49.903Z,22.63
2018-06-09T21:53:18.436Z,21.40
2018-06-09T21:55:46.712Z,23.67
2018-06-09T21:58:15.190Z,24.57
2018-06-09T22:00:43.795Z,26.13
2018-06-09T22:03:12.290Z,23.13
2018-06-09T22:05:41.518Z,19.83
2018-06-09T22:08:10.299Z,26.50
2018-06-09T22:10:38.850Z,23.47
2018-06-09T22:13:07.422Z,31.50
2018-06-09T22:15:36.894Z,26.10
2018-06-09T22:18:05.115Z,22.27
2018-06-09T22:20:33.621Z,20.53
2018-06-09T22:23:02.180Z,23.03
2018-06-09T22:26:04.235Z,22.77
2018-06-09T22:28:32.997Z,20.53
2018-06-09T22:31:01.508Z,25.73
2018-06-09T22:33:30.073Z,26.57
2018-06-09T22:35:58.879Z,23.43
2018-06-09T22:38:27.437Z,21.63
2018-06-09T22:40:55.921Z,20.93
2018-06-09T22:43:24.455Z,26.10
2018-06-09T22:45:53.100Z,27.80
2018-06-09T22:48:21.743Z,24.30
2018-06-09T22:50:50.457Z,24.97
2018-06-09T22:53:19.199Z,27.60
2018-06-09T22:55:47.718Z,32.30
2018-06-09T22:58:16.260Z,27.23
2018-06-09T23:00:50.128Z,27.60
2018-06-09T23:03:18.907Z,25.90
2018-06-09T23:05:48.109Z,26.13
2018-06-09T23:08:17.100Z,25.43
2018-06-09T23:10:45.800Z,33.43
2018-06-09T23:13:15.268Z,26.60
2018-06-09T23:15:44.090Z,29.50
2018-06-09T23:18:12.837Z,20.70
2018-06-09T23:20:41.368Z,31.03
2018-06-09T23:23:09.887Z,25.20
2018-06-09T23:25:38.411Z,29.53
2018-06-09T23:28:06.935Z,31.90
2018-06-09T23:30:35.775Z,31.17
2018-06-09T23:33:04.279Z,31.20
2018-06-09T23:35:32.803Z,27.20
2018-06-09T23:38:01.556Z,31.07
2018-06-09T23:40:29.910Z,28.40
2018-06-09T23:42:59.195Z,28.83
2018-06-09T23:45:28.179Z,27.20
2018-06-09T23:47:57.034Z,23.40
2018-06-09T23:50:26.343Z,26.03
2018-06-09T23:52:54.864Z,30.57
2018-06-09T23:55:23.868Z,31.33
2018-06-09T23:57:52.365Z,35.10
